Time;durP1;ratioP1;P1;durP2;ratioP2;P2;SDS_P1;SDS_P2;PMS_P1;PMS_P2;Temp;Humidity;BMP_temperature;BMP_pressure;BME280_temperature;BME280_humidity;BME280_pressure;Samples;Min_cycle;Max_cycle;Signal;HPM_P1;HPM_P2
2021/08/27 00:01:54;;;;;;;5.50;1.15;;;;;;;;;;4983343;28;20856;-55
2021/08/27 00:04:20;;;;;;;8.23;0.80;;;;;;;;;;4984841;28;20491;-57
2021/08/27 00:06:47;;;;;;;3.72;0.60;;;;;;;;;;4986107;28;20698;-57
2021/08/27 00:09:13;;;;;;;5.95;0.77;;;;;;;;;;4983354;28;20053;-57
2021/08/27 00:11:40;;;;;;;6.00;0.77;;;;;;;;;;4980565;28;20061;-57
2021/08/27 00:14:06;;;;;;;6.30;0.57;;;;;;;;;;4984257;28;20077;-55
2021/08/27 00:16:32;;;;;;;4.05;1.00;;;;;;;;;;4984362;28;20141;-58
2021/08/27 00:18:59;;;;;;;3.88;1.00;;;;;;;;;;4978536;28;20513;-57
2021/08/27 00:21:25;;;;;;;5.18;0.70;;;;;;;;;;4984580;28;20038;-56
2021/08/27 00:23:51;;;;;;;3.95;0.60;;;;;;;;;;4983726;28;20054;-57
2021/08/27 00:26:18;;;;;;;7.93;0.93;;;;;;;;;;4984465;28;20042;-56
2021/08/27 00:28:44;;;;;;;9.45;1.00;;;;;;;;;;4981209;28;20046;-56
2021/08/27 00:31:11;;;;;;;3.70;0.80;;;;;;;;;;4985988;28;20046;-57
2021/08/27 00:33:37;;;;;;;7.85;1.23;;;;;;;;;;4974462;28;20070;-56
2021/08/27 00:36:03;;;;;;;7.78;1.67;;;;;;;;;;4983415;28;20045;-57
2021/08/27 00:38:30;;;;;;;3.20;0.90;;;;;;;;;;4987010;28;20038;-57
2021/08/27 00:40:56;;;;;;;4.45;1.00;;;;;;;;;;4984030;28;20129;-57
2021/08/27 00:43:23;;;;;;;5.25;0.75;;;;;;;;;;4985661;28;20042;-57
2021/08/27 00:45:49;;;;;;;10.35;1.05;;;;;;;;;;4983491;28;20485;-56
2021/08/27 00:48:16;;;;;;;5.15;0.77;;;;;;;;;;4984179;28;20093;-57
2021/08/27 00:50:43;;;;;;;6.70;1.23;;;;;;;;;;4980434;28;20616;-57
2021/08/27 00:53:09;;;;;;;7.15;1.33;;;;;;;;;;4985809;28;20057;-56
2021/08/27 00:55:36;;;;;;;4.03;0.90;;;;;;;;;;4983887;28;20043;-57
2021/08/27 00:58:03;;;;;;;4.75;0.93;;;;;;;;;;4981387;28;20051;-57
2021/08/27 01:00:29;;;;;;;6.38;0.90;;;;;;;;;;4980938;28;20538;-56
2021/08/27 01:02:56;;;;;;;5.85;0.73;;;;;;;;;;4982542;28;20042;-57
2021/08/27 01:05:23;;;;;;;7.45;0.80;;;;;;;;;;4980576;28;20039;-56
2021/08/27 01:07:49;;;;;;;5.45;0.82;;;;;;;;;;4984474;28;20069;-57
2021/08/27 01:10:16;;;;;;;5.80;1.15;;;;;;;;;;4981873;28;20069;-57
2021/08/27 01:12:42;;;;;;;4.53;0.98;;;;;;;;;;4981321;28;20382;-55
2021/08/27 01:15:22;;;;;;;3.75;0.60;;;;;;;;;;4983064;28;20054;-57
2021/08/27 01:18:15;;;;;;;7.95;1.17;;;;;;;;;;4981004;28;20088;-55
2021/08/27 01:21:00;;;;;;;5.05;1.05;;;;;;;;;;4982442;28;20109;-57
2021/08/27 01:23:32;;;;;;;6.97;1.13;;;;;;;;;;4984983;28;20420;-57
2021/08/27 01:25:59;;;;;;;7.63;1.00;;;;;;;;;;4983214;28;20460;-57
2021/08/27 01:28:27;;;;;;;5.32;0.60;;;;;;;;;;4981661;28;20047;-57
2021/08/27 01:31:12;;;;;;;7.60;1.02;;;;;;;;;;4980707;28;20052;-57
2021/08/27 01:33:56;;;;;;;3.97;0.57;;;;;;;;;;4986259;28;20049;-57
2021/08/27 01:36:24;;;;;;;13.57;1.23;;;;;;;;;;4983076;28;20301;-57
2021/08/27 01:38:52;;;;;;;7.13;1.25;;;;;;;;;;4979922;28;20042;-57
2021/08/27 01:41:19;;;;;;;6.20;1.08;;;;;;;;;;4974409;28;20525;-57
2021/08/27 01:43:46;;;;;;;7.38;0.80;;;;;;;;;;4983071;28;20060;-56
2021/08/27 01:46:13;;;;;;;6.25;0.88;;;;;;;;;;4982822;28;20907;-56
2021/08/27 01:48:42;;;;;;;7.88;0.90;;;;;;;;;;4981342;28;20469;-57
2021/08/27 01:51:09;;;;;;;4.55;1.10;;;;;;;;;;4984189;28;20053;-56
2021/08/27 01:53:37;;;;;;;4.88;0.70;;;;;;;;;;4983090;28;20129;-55
2021/08/27 01:56:04;;;;;;;6.60;1.10;;;;;;;;;;4982700;28;20046;-56
2021/08/27 01:58:32;;;;;;;6.70;0.90;;;;;;;;;;4982516;28;20890;-56
2021/08/27 02:00:59;;;;;;;4.15;0.88;;;;;;;;;;4977591;28;20051;-56
2021/08/27 02:03:28;;;;;;;10.10;1.17;;;;;;;;;;4981721;28;20049;-55
2021/08/27 02:05:55;;;;;;;11.35;1.08;;;;;;;;;;4980795;28;20056;-57
2021/08/27 02:08:21;;;;;;;5.53;0.98;;;;;;;;;;4981635;28;20046;-57
2021/08/27 02:10:49;;;;;;;6.28;0.75;;;;;;;;;;4984670;28;20042;-55
2021/08/27 02:13:16;;;;;;;3.90;0.90;;;;;;;;;;4983239;28;20836;-55
2021/08/27 02:15:43;;;;;;;7.15;0.90;;;;;;;;;;4982562;28;20053;-57
2021/08/27 02:18:09;;;;;;;4.60;1.02;;;;;;;;;;4982964;28;20046;-57
2021/08/27 02:20:36;;;;;;;2.05;0.70;;;;;;;;;;4983545;28;20049;-57
2021/08/27 02:23:03;;;;;;;4.65;0.85;;;;;;;;;;4979811;28;20058;-57
2021/08/27 02:25:33;;;;;;;6.93;1.10;;;;;;;;;;4984393;28;20043;-56
2021/08/27 02:28:03;;;;;;;3.35;0.73;;;;;;;;;;4981775;28;20046;-57
2021/08/27 02:30:31;;;;;;;5.00;0.70;;;;;;;;;;4980103;28;20043;-58
2021/08/27 02:32:59;;;;;;;5.35;0.63;;;;;;;;;;4985042;28;20050;-57
2021/08/27 02:35:26;;;;;;;5.30;0.82;;;;;;;;;;4984626;28;20496;-56
2021/08/27 02:37:52;;;;;;;8.38;1.30;;;;;;;;;;4980532;28;20068;-57
2021/08/27 02:40:18;;;;;;;5.53;0.73;;;;;;;;;;4983754;28;20054;-57
2021/08/27 02:42:45;;;;;;;2.28;1.10;;;;;;;;;;4980379;28;20057;-57
2021/08/27 02:45:12;;;;;;;2.67;0.47;;;;;;;;;;4982998;28;20093;-58
2021/08/27 02:47:38;;;;;;;4.30;0.95;;;;;;;;;;4981276;28;20042;-57
2021/08/27 02:50:05;;;;;;;6.05;0.95;;;;;;;;;;4983324;28;20046;-57
2021/08/27 02:52:35;;;;;;;5.05;0.80;;;;;;;;;;4977446;28;20050;-57
2021/08/27 02:55:19;;;;;;;5.70;1.35;;;;;;;;;;4980021;28;20066;-56
2021/08/27 02:57:57;;;;;;;6.65;0.70;;;;;;;;;;4975401;28;20060;-57
2021/08/27 03:00:25;;;;;;;6.63;1.30;;;;;;;;;;4980075;28;20054;-57
2021/08/27 03:02:52;;;;;;;4.18;0.70;;;;;;;;;;4974470;28;20109;-57
2021/08/27 03:05:23;;;;;;;6.07;0.80;;;;;;;;;;4983760;28;20053;-57
2021/08/27 03:08:00;;;;;;;7.47;1.05;;;;;;;;;;4975275;28;20614;-57
2021/08/27 03:10:29;;;;;;;6.93;0.90;;;;;;;;;;4984092;28;20136;-56
2021/08/27 03:13:09;;;;;;;7.90;0.82;;;;;;;;;;4977674;28;20057;-56
2021/08/27 03:15:41;;;;;;;3.72;0.93;;;;;;;;;;4981419;28;20038;-57
2021/08/27 03:18:13;;;;;;;5.47;1.10;;;;;;;;;;4976697;28;20078;-56
2021/08/27 03:20:47;;;;;;;5.30;1.10;;;;;;;;;;4983096;28;20042;-57
2021/08/27 03:23:14;;;;;;;5.95;0.85;;;;;;;;;;4979157;28;20393;-57
2021/08/27 03:25:42;;;;;;;3.65;0.65;;;;;;;;;;4982065;28;20050;-56
2021/08/27 03:28:12;;;;;;;4.50;0.95;;;;;;;;;;4980702;28;20047;-56
2021/08/27 03:30:38;;;;;;;5.22;1.33;;;;;;;;;;4981615;28;20545;-56
2021/08/27 03:33:07;;;;;;;3.88;0.93;;;;;;;;;;4973705;28;20493;-57
2021/08/27 03:35:33;;;;;;;6.72;0.90;;;;;;;;;;4982229;28;20053;-58
2021/08/27 03:38:00;;;;;;;7.35;1.05;;;;;;;;;;4981468;28;20054;-56
2021/08/27 03:40:27;;;;;;;5.90;1.00;;;;;;;;;;4981230;28;20501;-57
2021/08/27 03:42:56;;;;;;;2.88;1.08;;;;;;;;;;4981004;28;20057;-57
2021/08/27 03:45:23;;;;;;;4.15;1.25;;;;;;;;;;4980954;28;20504;-57
2021/08/27 03:47:50;;;;;;;6.47;1.20;;;;;;;;;;4978335;28;20038;-57
2021/08/27 03:50:17;;;;;;;6.15;1.00;;;;;;;;;;4982518;28;20054;-56
2021/08/27 03:52:44;;;;;;;5.25;1.27;;;;;;;;;;4979917;28;20509;-57
2021/08/27 03:55:12;;;;;;;6.68;1.45;;;;;;;;;;4983694;28;20694;-57
2021/08/27 03:57:38;;;;;;;4.18;0.93;;;;;;;;;;4982299;28;20077;-57
2021/08/27 04:00:06;;;;;;;3.97;1.00;;;;;;;;;;4978618;28;20046;-55
2021/08/27 04:02:33;;;;;;;6.93;0.98;;;;;;;;;;4977847;28;20162;-57
2021/08/27 04:05:10;;;;;;;7.05;0.73;;;;;;;;;;4982782;28;20053;-57
2021/08/27 04:07:36;;;;;;;5.65;0.90;;;;;;;;;;4983567;28;20061;-57
2021/08/27 04:10:04;;;;;;;4.45;0.75;;;;;;;;;;4982699;28;20641;-55
2021/08/27 04:12:30;;;;;;;7.82;1.00;;;;;;;;;;4979775;28;20449;-55
2021/08/27 04:14:57;;;;;;;7.15;0.85;;;;;;;;;;4980644;28;20078;-57
2021/08/27 04:17:23;;;;;;;6.20;0.90;;;;;;;;;;4982687;28;20042;-57
2021/08/27 04:19:50;;;;;;;7.22;1.00;;;;;;;;;;4980142;28;20062;-57
2021/08/27 04:22:16;;;;;;;6.32;1.15;;;;;;;;;;4983874;28;20082;-57
2021/08/27 04:24:42;;;;;;;8.60;1.10;;;;;;;;;;4974753;28;20046;-56
2021/08/27 04:27:09;;;;;;;3.22;0.95;;;;;;;;;;4980949;28;20058;-57
2021/08/27 04:29:35;;;;;;;9.10;0.90;;;;;;;;;;4981733;28;20050;-57
2021/08/27 04:32:01;;;;;;;8.48;1.52;;;;;;;;;;4987268;28;20046;-57
2021/08/27 04:34:28;;;;;;;3.00;0.60;;;;;;;;;;4984361;28;20042;-56
2021/08/27 04:36:54;;;;;;;5.68;1.05;;;;;;;;;;4981434;28;20400;-57
2021/08/27 04:39:21;;;;;;;3.15;0.70;;;;;;;;;;4986154;28;20038;-57
2021/08/27 04:41:48;;;;;;;5.65;0.80;;;;;;;;;;4984135;28;20047;-57
2021/08/27 04:44:14;;;;;;;4.38;0.73;;;;;;;;;;4981197;28;20712;-57
2021/08/27 04:46:41;;;;;;;3.83;1.00;;;;;;;;;;4983693;28;20381;-55
2021/08/27 04:49:07;;;;;;;7.90;1.00;;;;;;;;;;4981100;28;20544;-56
2021/08/27 04:51:34;;;;;;;5.30;0.80;;;;;;;;;;4983506;28;20126;-56
2021/08/27 04:54:00;;;;;;;4.50;1.20;;;;;;;;;;4984492;28;20042;-55
2021/08/27 04:56:26;;;;;;;5.38;1.00;;;;;;;;;;4984131;28;20042;-56
2021/08/27 04:58:53;;;;;;;2.53;0.60;;;;;;;;;;4984055;28;20444;-54
2021/08/27 05:01:19;;;;;;;2.95;0.60;;;;;;;;;;4983758;28;20042;-55
2021/08/27 05:03:47;;;;;;;3.92;0.93;;;;;;;;;;4978277;28;20046;-57
2021/08/27 05:06:14;;;;;;;3.83;1.20;;;;;;;;;;4979755;28;20050;-56
2021/08/27 05:08:41;;;;;;;7.68;0.80;;;;;;;;;;4976713;28;20523;-57
2021/08/27 05:11:07;;;;;;;3.60;0.98;;;;;;;;;;4981582;28;20054;-57
2021/08/27 05:13:33;;;;;;;1.83;0.55;;;;;;;;;;4980451;28;20137;-57
2021/08/27 05:16:00;;;;;;;2.83;0.88;;;;;;;;;;4980465;28;20054;-55
2021/08/27 05:18:29;;;;;;;5.93;0.80;;;;;;;;;;4979813;28;20088;-56
2021/08/27 05:20:56;;;;;;;1.40;0.47;;;;;;;;;;4980119;28;20064;-56
2021/08/27 05:23:22;;;;;;;6.55;0.75;;;;;;;;;;4982921;28;20057;-57
2021/08/27 05:25:49;;;;;;;4.13;0.98;;;;;;;;;;4980803;28;20050;-57
2021/08/27 05:28:15;;;;;;;8.50;1.20;;;;;;;;;;4982545;28;20048;-57
2021/08/27 05:30:42;;;;;;;6.65;1.05;;;;;;;;;;4980016;28;20092;-57
2021/08/27 05:33:08;;;;;;;3.05;0.70;;;;;;;;;;4982394;28;20073;-57
2021/08/27 05:35:34;;;;;;;5.32;0.90;;;;;;;;;;4978131;28;20497;-56
2021/08/27 05:38:01;;;;;;;2.40;0.57;;;;;;;;;;4982123;28;20528;-57
2021/08/27 05:40:27;;;;;;;7.32;1.15;;;;;;;;;;4978711;28;20057;-56
2021/08/27 05:42:54;;;;;;;12.70;2.10;;;;;;;;;;4981176;28;20050;-56
2021/08/27 05:45:20;;;;;;;5.00;1.20;;;;;;;;;;4979323;28;20048;-56
2021/08/27 05:47:46;;;;;;;2.30;0.70;;;;;;;;;;4983457;28;20501;-57
2021/08/27 05:50:14;;;;;;;5.25;1.50;;;;;;;;;;4980027;28;20062;-56
2021/08/27 05:52:40;;;;;;;4.45;0.60;;;;;;;;;;4983450;28;20137;-57
2021/08/27 05:55:07;;;;;;;3.58;1.00;;;;;;;;;;4982783;28;20125;-56
2021/08/27 05:57:34;;;;;;;5.95;0.95;;;;;;;;;;4981360;28;20532;-56
2021/08/27 06:00:00;;;;;;;6.32;1.08;;;;;;;;;;4981790;28;20073;-57
2021/08/27 06:02:27;;;;;;;4.93;1.10;;;;;;;;;;4980628;28;20527;-56
2021/08/27 06:04:53;;;;;;;14.10;1.88;;;;;;;;;;4981070;28;20468;-57
2021/08/27 06:07:20;;;;;;;5.15;1.10;;;;;;;;;;4979400;28;20380;-56
2021/08/27 06:09:46;;;;;;;6.80;1.20;;;;;;;;;;4982743;28;20742;-57
2021/08/27 06:12:12;;;;;;;3.63;0.82;;;;;;;;;;4980012;28;20056;-56
2021/08/27 06:14:39;;;;;;;4.35;1.15;;;;;;;;;;4978362;28;20046;-55
2021/08/27 06:17:05;;;;;;;5.25;0.70;;;;;;;;;;4979163;28;20914;-55
2021/08/27 06:19:31;;;;;;;5.75;1.02;;;;;;;;;;4981139;28;20946;-56
2021/08/27 06:21:58;;;;;;;7.18;1.08;;;;;;;;;;4977902;28;20054;-55
2021/08/27 06:24:25;;;;;;;2.20;0.63;;;;;;;;;;4981446;28;20046;-57
2021/08/27 06:26:51;;;;;;;3.45;0.52;;;;;;;;;;4981015;28;20165;-57
2021/08/27 06:29:18;;;;;;;7.53;1.20;;;;;;;;;;4984016;28;20148;-57
2021/08/27 06:31:44;;;;;;;4.00;1.02;;;;;;;;;;4977820;28;20046;-57
2021/08/27 06:34:11;;;;;;;7.38;1.20;;;;;;;;;;4979708;28;20049;-57
2021/08/27 06:36:37;;;;;;;7.88;1.00;;;;;;;;;;4981873;28;20046;-57
2021/08/27 06:39:04;;;;;;;2.45;0.95;;;;;;;;;;4980624;28;20097;-57
2021/08/27 06:41:30;;;;;;;3.58;0.63;;;;;;;;;;4983334;28;20130;-56
2021/08/27 06:43:56;;;;;;;6.82;1.00;;;;;;;;;;4979981;28;20056;-57
2021/08/27 06:46:24;;;;;;;4.78;0.90;;;;;;;;;;4984725;28;20046;-57
2021/08/27 06:48:51;;;;;;;4.80;0.85;;;;;;;;;;4982272;28;20782;-58
2021/08/27 06:51:17;;;;;;;6.63;0.88;;;;;;;;;;4981530;28;20783;-56
2021/08/27 06:53:44;;;;;;;10.55;1.65;;;;;;;;;;4981523;28;20054;-57
2021/08/27 06:56:10;;;;;;;8.02;1.13;;;;;;;;;;4978339;28;20054;-57
2021/08/27 06:58:36;;;;;;;2.45;0.93;;;;;;;;;;4980110;28;20112;-57
2021/08/27 07:01:03;;;;;;;4.90;1.00;;;;;;;;;;4981019;28;20076;-57
2021/08/27 07:03:29;;;;;;;5.13;0.80;;;;;;;;;;4982142;28;20047;-57
2021/08/27 07:05:56;;;;;;;7.82;0.70;;;;;;;;;;4981224;28;20408;-57
2021/08/27 07:08:23;;;;;;;5.07;1.17;;;;;;;;;;4983999;28;20046;-57
2021/08/27 07:10:49;;;;;;;3.00;0.60;;;;;;;;;;4980253;28;20125;-57
2021/08/27 07:13:15;;;;;;;3.78;0.77;;;;;;;;;;4980469;28;20045;-57
2021/08/27 07:15:42;;;;;;;5.00;0.60;;;;;;;;;;4981051;28;20485;-57
2021/08/27 07:18:08;;;;;;;4.25;0.80;;;;;;;;;;4976298;28;20042;-57
2021/08/27 07:20:35;;;;;;;3.17;0.70;;;;;;;;;;4982931;28;20085;-57
2021/08/27 07:23:01;;;;;;;2.28;0.82;;;;;;;;;;4981884;28;20050;-57
2021/08/27 07:25:28;;;;;;;5.10;1.52;;;;;;;;;;4982454;28;20166;-58
2021/08/27 07:27:54;;;;;;;3.50;0.60;;;;;;;;;;4978423;28;20057;-56
2021/08/27 07:30:20;;;;;;;3.60;0.90;;;;;;;;;;4981492;28;20049;-56
2021/08/27 07:32:47;;;;;;;4.90;0.88;;;;;;;;;;4982399;28;20052;-57
2021/08/27 07:35:14;;;;;;;3.05;0.73;;;;;;;;;;4981563;28;20047;-56
2021/08/27 07:37:41;;;;;;;8.68;1.40;;;;;;;;;;4981932;28;20521;-58
2021/08/27 07:40:09;;;;;;;6.05;1.10;;;;;;;;;;4983309;28;20403;-57
2021/08/27 07:42:35;;;;;;;5.53;0.90;;;;;;;;;;4977466;28;20057;-57
2021/08/27 07:45:02;;;;;;;6.25;0.80;;;;;;;;;;4979962;28;20065;-57
2021/08/27 07:47:28;;;;;;;4.25;0.88;;;;;;;;;;4983615;28;20057;-58
2021/08/27 07:49:55;;;;;;;2.38;0.90;;;;;;;;;;4979032;28;20066;-58
2021/08/27 07:52:21;;;;;;;3.63;0.90;;;;;;;;;;4980466;28;20059;-58
2021/08/27 07:54:48;;;;;;;5.20;1.05;;;;;;;;;;4980221;28;20137;-58
2021/08/27 07:57:14;;;;;;;5.22;1.08;;;;;;;;;;4979944;28;20046;-58
2021/08/27 07:59:41;;;;;;;8.63;1.15;;;;;;;;;;4979952;28;20586;-57
2021/08/27 08:02:08;;;;;;;7.53;1.20;;;;;;;;;;4979557;28;20042;-58
2021/08/27 08:04:35;;;;;;;4.45;0.82;;;;;;;;;;4983019;28;20050;-57
2021/08/27 08:07:01;;;;;;;5.03;0.82;;;;;;;;;;4985234;28;20146;-57
2021/08/27 08:09:27;;;;;;;4.47;1.15;;;;;;;;;;4983587;28;20164;-58
2021/08/27 08:11:54;;;;;;;5.18;1.30;;;;;;;;;;4985719;28;20054;-58
2021/08/27 08:14:20;;;;;;;4.03;0.85;;;;;;;;;;4982795;28;20165;-58
2021/08/27 08:16:47;;;;;;;4.63;1.42;;;;;;;;;;4981987;28;20054;-56
2021/08/27 08:19:13;;;;;;;5.93;1.23;;;;;;;;;;4980858;28;20063;-58
2021/08/27 08:21:40;;;;;;;3.13;1.00;;;;;;;;;;4983252;28;20072;-58
2021/08/27 08:24:08;;;;;;;6.30;1.75;;;;;;;;;;4980287;28;20065;-57
2021/08/27 08:26:34;;;;;;;4.30;1.30;;;;;;;;;;4985122;28;20124;-58
2021/08/27 08:29:01;;;;;;;12.10;1.60;;;;;;;;;;4985703;28;20129;-58
2021/08/27 08:31:28;;;;;;;6.32;1.25;;;;;;;;;;4983817;28;20129;-58
2021/08/27 08:33:55;;;;;;;4.38;1.55;;;;;;;;;;4978839;28;20101;-58
2021/08/27 08:36:22;;;;;;;3.83;1.23;;;;;;;;;;4985037;28;20137;-58
2021/08/27 08:38:49;;;;;;;7.15;1.20;;;;;;;;;;4984903;28;20500;-57
2021/08/27 08:41:15;;;;;;;9.27;1.45;;;;;;;;;;4981904;28;20154;-58
2021/08/27 08:43:43;;;;;;;5.70;1.60;;;;;;;;;;4985230;28;20049;-57
2021/08/27 08:46:09;;;;;;;9.63;1.42;;;;;;;;;;4983322;28;20165;-56
2021/08/27 08:48:36;;;;;;;10.52;1.77;;;;;;;;;;4983441;28;20054;-58
2021/08/27 08:51:05;;;;;;;3.28;1.05;;;;;;;;;;4982849;28;20503;-57
2021/08/27 08:53:34;;;;;;;5.40;1.45;;;;;;;;;;4981820;28;20039;-58
2021/08/27 08:56:02;;;;;;;12.32;1.63;;;;;;;;;;4983564;28;20077;-56
2021/08/27 08:58:32;;;;;;;8.38;1.58;;;;;;;;;;4985525;28;20054;-58
2021/08/27 09:00:58;;;;;;;7.05;1.63;;;;;;;;;;4983399;28;20058;-58
2021/08/27 09:03:25;;;;;;;5.90;1.23;;;;;;;;;;4983785;28;20481;-56
2021/08/27 09:05:52;;;;;;;9.77;1.85;;;;;;;;;;4981555;28;20062;-57
2021/08/27 09:08:38;;;;;;;4.35;1.00;;;;;;;;;;4984889;28;20046;-57
2021/08/27 09:11:05;;;;;;;;;;;;;;;;;;4985241;28;20516;-58
2021/08/27 09:13:31;;;;;;;;;;;;;;;;;;4977214;28;20624;-57
2021/08/27 09:16:07;;;;;;;9.50;1.90;;;;;;;;;;4979104;28;19961;-58
2021/08/27 09:18:41;;;;;;;4.35;1.35;;;;;;;;;;4984770;28;20046;-57
2021/08/27 09:21:26;;;;;;;12.75;2.10;;;;;;;;;;4982375;28;20052;-58
2021/08/27 09:24:12;;;;;;;6.32;1.33;;;;;;;;;;4984583;28;20065;-57
2021/08/27 09:26:40;;;;;;;5.95;1.58;;;;;;;;;;4980720;28;20054;-57
2021/08/27 09:29:06;;;;;;;8.18;1.48;;;;;;;;;;4972767;28;20057;-58
2021/08/27 09:31:33;;;;;;;5.85;1.20;;;;;;;;;;4981989;28;20133;-57
2021/08/27 09:33:59;;;;;;;9.23;1.55;;;;;;;;;;4980538;28;20042;-57
2021/08/27 09:36:28;;;;;;;5.82;1.67;;;;;;;;;;4981423;28;20446;-58
2021/08/27 09:39:03;;;;;;;8.73;1.48;;;;;;;;;;4980545;28;20160;-58
2021/08/27 09:41:29;;;;;;;3.55;1.17;;;;;;;;;;4980415;28;20057;-58
2021/08/27 09:43:56;;;;;;;7.45;1.48;;;;;;;;;;4976170;28;20416;-58
2021/08/27 09:46:33;;;;;;;9.85;1.63;;;;;;;;;;4981315;28;20050;-58
2021/08/27 09:49:01;;;;;;;7.95;1.65;;;;;;;;;;4981144;28;20493;-57
2021/08/27 09:51:40;;;;;;;11.10;2.05;;;;;;;;;;4996118;28;20041;-58
2021/08/27 09:54:07;;;;;;;4.18;1.10;;;;;;;;;;4981345;28;20492;-58
2021/08/27 09:56:46;;;;;;;7.47;1.63;;;;;;;;;;4981479;28;20050;-57
2021/08/27 09:59:13;;;;;;;8.32;1.65;;;;;;;;;;4982705;28;20817;-57
2021/08/27 10:01:46;;;;;;;2.38;1.15;;;;;;;;;;4980781;28;20058;-58
2021/08/27 10:04:14;;;;;;;9.75;1.20;;;;;;;;;;4980271;28;20050;-57
2021/08/27 10:06:41;;;;;;;5.43;1.25;;;;;;;;;;4981379;28;20069;-57
2021/08/27 10:09:07;;;;;;;8.15;1.60;;;;;;;;;;4980982;28;20504;-58
2021/08/27 10:11:34;;;;;;;5.53;1.60;;;;;;;;;;4980500;28;20137;-57
2021/08/27 10:14:01;;;;;;;7.85;1.70;;;;;;;;;;4980668;28;20050;-57
2021/08/27 10:16:29;;;;;;;8.77;1.63;;;;;;;;;;4978212;28;20047;-57
2021/08/27 10:18:56;;;;;;;10.00;1.30;;;;;;;;;;4981244;28;20054;-57
2021/08/27 10:21:22;;;;;;;7.30;1.92;;;;;;;;;;4976931;28;20046;-57
2021/08/27 10:23:49;;;;;;;5.45;1.05;;;;;;;;;;4983796;28;20050;-58
2021/08/27 10:26:17;;;;;;;6.47;1.63;;;;;;;;;;4982626;28;20548;-57
2021/08/27 10:28:43;;;;;;;5.55;1.10;;;;;;;;;;4983721;28;20365;-57
2021/08/27 10:31:10;;;;;;;3.92;1.40;;;;;;;;;;4978231;28;20079;-57
2021/08/27 10:33:39;;;;;;;4.63;1.30;;;;;;;;;;4976963;28;20054;-57
2021/08/27 10:36:06;;;;;;;6.85;1.48;;;;;;;;;;4978782;28;20505;-58
2021/08/27 10:39:08;;;;;;;10.38;1.58;;;;;;;;;;4982286;28;20054;-57
2021/08/27 10:41:36;;;;;;;5.60;1.20;;;;;;;;;;4973650;28;20038;-57
2021/08/27 10:44:13;;;;;;;4.50;1.33;;;;;;;;;;4999159;28;20041;-56
2021/08/27 10:47:05;;;;;;;6.10;1.27;;;;;;;;;;4994241;28;20064;-57
2021/08/27 10:49:44;;;;;;;5.28;1.38;;;;;;;;;;4997993;28;20820;-58
2021/08/27 10:52:27;;;;;;;11.20;1.50;;;;;;;;;;4999474;28;20087;-57
2021/08/27 10:55:02;;;;;;;7.25;1.65;;;;;;;;;;4996162;28;20074;-58
2021/08/27 10:57:29;;;;;;;;;;;;;;;;;;4994103;28;20173;-57
2021/08/27 10:59:59;;;;;;;7.18;1.50;;;;;;;;;;4996351;28;20548;-57
2021/08/27 11:02:27;;;;;;;7.85;1.25;;;;;;;;;;4993265;28;20046;-57
2021/08/27 11:04:54;;;;;;;10.32;1.40;;;;;;;;;;4997231;28;20428;-57
2021/08/27 11:07:25;;;;;;;6.03;1.35;;;;;;;;;;4995704;28;20157;-58
2021/08/27 11:10:01;;;;;;;6.20;1.42;;;;;;;;;;4980505;28;20585;-57
2021/08/27 11:12:42;;;;;;;7.88;1.58;;;;;;;;;;4966024;28;20050;-58
2021/08/27 11:15:26;;;;;;;16.33;1.90;;;;;;;;;;4985875;28;20058;-57
2021/08/27 11:18:07;;;;;;;8.57;1.30;;;;;;;;;;4978280;28;20080;-58
2021/08/27 11:20:34;;;;;;;6.05;1.25;;;;;;;;;;4981245;28;20141;-57
2021/08/27 11:23:00;;;;;;;9.77;1.80;;;;;;;;;;4979816;28;20905;-58
2021/08/27 11:25:27;;;;;;;7.55;1.60;;;;;;;;;;4964118;28;20047;-58
2021/08/27 11:28:08;;;;;;;8.23;1.40;;;;;;;;;;4961638;28;21021;-58
2021/08/27 11:30:35;;;;;;;6.47;1.40;;;;;;;;;;4957467;28;20057;-57
2021/08/27 11:33:01;;;;;;;7.65;1.65;;;;;;;;;;4960469;28;20138;-57
2021/08/27 11:35:43;;;;;;;5.72;1.35;;;;;;;;;;4967513;28;20077;-58
2021/08/27 11:38:09;;;;;;;6.75;1.20;;;;;;;;;;4964813;28;20137;-58
2021/08/27 11:40:36;;;;;;;6.03;1.58;;;;;;;;;;4968378;28;20137;-57
2021/08/27 11:43:02;;;;;;;9.52;2.45;;;;;;;;;;4963476;28;20571;-58
2021/08/27 11:45:32;;;;;;;4.28;1.33;;;;;;;;;;4967548;28;20046;-58
2021/08/27 11:48:04;;;;;;;9.48;1.50;;;;;;;;;;4965032;28;20077;-56
2021/08/27 11:50:38;;;;;;;3.95;1.08;;;;;;;;;;4966945;28;20579;-58
2021/08/27 11:53:06;;;;;;;8.67;1.80;;;;;;;;;;4966157;28;20046;-57
2021/08/27 11:55:39;;;;;;;5.75;1.17;;;;;;;;;;4965611;28;20047;-58
2021/08/27 11:58:06;;;;;;;7.13;1.30;;;;;;;;;;4963779;28;20146;-58
2021/08/27 12:00:35;;;;;;;7.63;1.30;;;;;;;;;;4962245;28;20464;-57
2021/08/27 12:03:02;;;;;;;8.57;1.50;;;;;;;;;;4971179;28;20405;-57
2021/08/27 12:05:29;;;;;;;5.38;1.30;;;;;;;;;;4984790;28;20066;-56
2021/08/27 12:07:57;;;;;;;6.75;1.70;;;;;;;;;;4980108;28;20058;-56
2021/08/27 12:10:25;;;;;;;7.60;1.58;;;;;;;;;;4969599;28;20141;-58
2021/08/27 12:12:52;;;;;;;6.43;1.20;;;;;;;;;;4966400;28;20137;-58
2021/08/27 12:15:20;;;;;;;6.50;1.58;;;;;;;;;;4963946;28;20074;-58
2021/08/27 12:17:58;;;;;;;11.00;1.20;;;;;;;;;;4965886;28;20081;-58
2021/08/27 12:20:26;;;;;;;7.65;1.60;;;;;;;;;;4967978;28;20047;-57
2021/08/27 12:22:59;;;;;;;11.20;2.88;;;;;;;;;;4965623;28;20089;-57
2021/08/27 12:25:28;;;;;;;5.78;1.38;;;;;;;;;;4965774;28;20066;-58
2021/08/27 12:28:15;;;;;;;8.05;1.80;;;;;;;;;;4983294;28;20060;-57
2021/08/27 12:30:47;;;;;;;9.50;1.50;;;;;;;;;;4986362;28;20398;-58
2021/08/27 12:33:14;;;;;;;7.10;1.50;;;;;;;;;;4984398;28;20062;-58
2021/08/27 12:35:41;;;;;;;7.40;1.52;;;;;;;;;;4984341;28;20050;-58
2021/08/27 12:38:08;;;;;;;4.88;1.00;;;;;;;;;;4978302;28;20058;-57
2021/08/27 12:40:35;;;;;;;6.47;1.30;;;;;;;;;;4965661;28;20081;-58
2021/08/27 12:43:04;;;;;;;8.20;1.63;;;;;;;;;;4965444;28;20069;-57
2021/08/27 12:45:40;;;;;;;9.80;1.85;;;;;;;;;;4965577;28;20154;-57
2021/08/27 12:48:07;;;;;;;5.65;1.20;;;;;;;;;;4958899;28;20074;-57
2021/08/27 12:50:50;;;;;;;8.05;1.30;;;;;;;;;;4963049;28;20391;-57
2021/08/27 12:53:17;;;;;;;7.22;1.48;;;;;;;;;;4957070;28;20433;-58
2021/08/27 12:55:44;;;;;;;8.48;1.92;;;;;;;;;;4967261;28;20050;-56
2021/08/27 12:58:10;;;;;;;7.15;1.45;;;;;;;;;;4963776;28;20424;-57
2021/08/27 13:00:37;;;;;;;6.75;1.50;;;;;;;;;;4964803;28;20126;-57
2021/08/27 13:03:21;;;;;;;12.50;1.77;;;;;;;;;;4964735;28;20087;-57
2021/08/27 13:05:49;;;;;;;8.27;1.10;;;;;;;;;;4962513;28;20114;-57
2021/08/27 13:08:20;;;;;;;12.63;1.58;;;;;;;;;;4965630;28;20082;-58
2021/08/27 13:10:57;;;;;;;7.68;1.60;;;;;;;;;;4964490;28;20059;-57
2021/08/27 13:13:24;;;;;;;10.88;1.35;;;;;;;;;;4963963;28;20138;-57
2021/08/27 13:16:04;;;;;;;10.63;1.65;;;;;;;;;;4964328;28;20047;-56
2021/08/27 13:18:47;;;;;;;14.50;2.13;;;;;;;;;;4965659;28;20059;-57
2021/08/27 13:21:15;;;;;;;14.02;2.20;;;;;;;;;;4964983;28;20054;-57
2021/08/27 13:23:42;;;;;;;8.30;1.40;;;;;;;;;;4961004;28;20149;-57
2021/08/27 13:26:14;;;;;;;12.00;1.50;;;;;;;;;;4963293;28;20126;-56
2021/08/27 13:28:41;;;;;;;6.13;1.15;;;;;;;;;;4967089;28;20521;-57
2021/08/27 13:31:07;;;;;;;6.45;1.08;;;;;;;;;;4963063;28;20061;-57
2021/08/27 13:33:34;;;;;;;5.43;1.33;;;;;;;;;;4964742;28;20047;-57
2021/08/27 13:36:01;;;;;;;4.00;1.17;;;;;;;;;;4964570;28;20462;-55
2021/08/27 13:38:27;;;;;;;4.95;1.27;;;;;;;;;;4962894;28;20489;-57
2021/08/27 13:40:54;;;;;;;4.32;1.15;;;;;;;;;;4959779;28;20100;-55
2021/08/27 13:43:20;;;;;;;8.85;1.30;;;;;;;;;;4963396;28;20072;-57
2021/08/27 13:45:47;;;;;;;6.00;1.15;;;;;;;;;;4960218;28;20169;-57
2021/08/27 13:48:13;;;;;;;5.45;1.52;;;;;;;;;;4965967;28;20093;-57
2021/08/27 13:50:40;;;;;;;5.32;1.20;;;;;;;;;;4962141;28;20050;-57
2021/08/27 13:53:07;;;;;;;5.47;1.13;;;;;;;;;;4964456;28;20058;-55
2021/08/27 13:55:33;;;;;;;7.72;1.40;;;;;;;;;;4961003;28;20481;-56
2021/08/27 13:58:00;;;;;;;5.50;1.27;;;;;;;;;;4962733;28;20058;-57
2021/08/27 14:00:30;;;;;;;14.25;1.38;;;;;;;;;;4976381;28;20054;-56
2021/08/27 14:02:57;;;;;;;3.60;1.15;;;;;;;;;;4984932;28;20117;-57
2021/08/27 14:05:24;;;;;;;9.15;1.60;;;;;;;;;;4983329;28;20137;-56
2021/08/27 14:07:51;;;;;;;4.00;1.00;;;;;;;;;;4983220;28;20140;-57
2021/08/27 14:10:17;;;;;;;7.88;1.23;;;;;;;;;;4981574;28;20082;-56
2021/08/27 14:12:43;;;;;;;3.65;1.10;;;;;;;;;;4982630;28;20048;-57
2021/08/27 14:15:11;;;;;;;6.35;1.33;;;;;;;;;;4980468;28;20156;-57
2021/08/27 14:17:38;;;;;;;5.38;1.23;;;;;;;;;;4979259;28;20090;-57
2021/08/27 14:20:05;;;;;;;4.95;1.40;;;;;;;;;;4980624;28;20158;-56
2021/08/27 14:22:32;;;;;;;7.50;0.95;;;;;;;;;;4981889;28;20448;-57
2021/08/27 14:24:59;;;;;;;4.63;1.30;;;;;;;;;;4983180;28;20050;-57
2021/08/27 14:27:25;;;;;;;10.20;1.38;;;;;;;;;;4984459;28;20137;-56
2021/08/27 14:29:53;;;;;;;6.13;1.30;;;;;;;;;;4980739;28;20853;-57
2021/08/27 14:32:23;;;;;;;8.32;1.20;;;;;;;;;;4995890;28;20054;-57
2021/08/27 14:34:49;;;;;;;9.15;1.25;;;;;;;;;;4982127;28;20087;-57
2021/08/27 14:37:16;;;;;;;5.57;1.20;;;;;;;;;;4978486;28;20437;-57
2021/08/27 14:39:42;;;;;;;6.85;1.77;;;;;;;;;;4980379;28;20056;-57
2021/08/27 14:42:09;;;;;;;9.00;1.70;;;;;;;;;;4979826;28;20054;-57
2021/08/27 14:44:35;;;;;;;10.02;1.85;;;;;;;;;;4982900;28;20129;-56
2021/08/27 14:47:01;;;;;;;14.55;1.45;;;;;;;;;;4981483;28;20049;-56
2021/08/27 14:49:31;;;;;;;10.23;2.13;;;;;;;;;;4982889;28;20137;-57
2021/08/27 14:51:58;;;;;;;8.65;1.70;;;;;;;;;;4982115;28;20444;-56